TimeCST,TemperatureF,Dew PointF,Humidity,Sea Level PressureIn,VisibilityMPH,Wind Direction,Wind SpeedMPH,Gust SpeedMPH,PrecipitationIn,Events,Conditions,WindDirDegrees,DateUTC
12:15 AM,42.8,33.8,70,29.94,10.0,NNW,16.1,23.0,N/A,,Scattered Clouds,340,2013-03-05 06:15:00
12:35 AM,44.6,33.8,66,29.97,10.0,NNW,13.8,-,N/A,,Mostly Cloudy,340,2013-03-05 06:35:00
12:55 AM,42.8,35.6,76,29.99,10.0,NNW,17.3,20.7,N/A,,Overcast,330,2013-03-05 06:55:00
1:15 AM,42.8,35.6,76,29.99,10.0,NNW,11.5,-,N/A,,Overcast,340,2013-03-05 07:15:00
1:55 AM,42.8,33.8,70,30.03,10.0,NW,12.7,23.0,N/A,,Overcast,320,2013-03-05 07:55:00
2:15 AM,41.0,35.6,81,30.05,7.0,NW,10.4,19.6,N/A,Rain,Rain,320,2013-03-05 08:15:00
2:35 AM,41.0,35.6,81,30.05,5.0,NNW,17.3,24.2,N/A,Rain,Rain,330,2013-03-05 08:35:00
2:55 AM,39.2,35.6,87,30.07,7.0,NNW,13.8,24.2,N/A,,Drizzle,330,2013-03-05 08:55:00
3:15 AM,37.4,37.4,100,30.08,5.0,NW,13.8,18.4,N/A,Rain,Light Rain,310,2013-03-05 09:15:00
3:35 AM,37.4,37.4,100,30.09,7.0,WNW,5.8,-,N/A,,Drizzle,300,2013-03-05 09:35:00
3:55 AM,37.4,37.4,100,30.08,5.0,NW,11.5,21.9,N/A,Rain,Light Rain,320,2013-03-05 09:55:00
4:15 AM,37.4,37.4,100,30.08,5.0,NW,9.2,-,N/A,Rain,Light Rain,320,2013-03-05 10:15:00
4:35 AM,35.6,35.6,100,30.09,7.0,WNW,5.8,-,N/A,,Overcast,300,2013-03-05 10:35:00
4:55 AM,37.4,37.4,100,30.11,7.0,NW,8.1,-,N/A,,Overcast,310,2013-03-05 10:55:00
5:15 AM,37.4,37.4,100,30.11,7.0,NW,9.2,-,N/A,,Overcast,310,2013-03-05 11:15:00
5:35 AM,37.4,37.4,100,30.13,10.0,NW,12.7,20.7,N/A,,Overcast,310,2013-03-05 11:35:00
5:55 AM,37.4,37.4,100,30.14,10.0,NNW,17.3,23.0,N/A,,Overcast,330,2013-03-05 11:55:00
6:15 AM,37.4,37.4,100,30.14,10.0,NW,13.8,21.9,N/A,,Overcast,320,2013-03-05 12:15:00
7:15 AM,37.4,30.2,75,30.17,10.0,NW,10.4,-,N/A,,Mostly Cloudy,310,2013-03-05 13:15:00
7:35 AM,35.6,28.4,75,30.18,10.0,WNW,17.3,23.0,N/A,,Scattered Clouds,300,2013-03-05 13:35:00
7:55 AM,35.6,26.6,70,30.20,10.0,NW,19.6,27.6,N/A,,Clear,310,2013-03-05 13:55:00
8:15 AM,35.6,24.8,65,30.21,10.0,NW,18.4,28.8,N/A,,Clear,310,2013-03-05 14:15:00
8:35 AM,35.6,23.0,60,30.23,10.0,NW,18.4,28.8,N/A,,Clear,310,2013-03-05 14:35:00
8:55 AM,35.6,21.2,56,30.24,10.0,WNW,17.3,25.3,N/A,,Clear,300,2013-03-05 14:55:00
9:15 AM,35.6,21.2,56,30.25,10.0,NW,17.3,26.5,N/A,,Clear,320,2013-03-05 15:15:00
9:35 AM,35.6,21.2,56,30.26,10.0,WNW,18.4,26.5,N/A,,Clear,300,2013-03-05 15:35:00
9:55 AM,35.6,19.4,52,30.26,10.0,NW,20.7,28.8,N/A,,Clear,320,2013-03-05 15:55:00
10:15 AM,37.4,21.2,52,30.27,10.0,WNW,16.1,24.2,N/A,,Clear,300,2013-03-05 16:15:00
10:35 AM,37.4,19.4,48,30.28,10.0,NW,16.1,26.5,N/A,,Clear,310,2013-03-05 16:35:00
10:55 AM,37.4,21.2,52,30.28,10.0,WNW,13.8,27.6,N/A,,Clear,290,2013-03-05 16:55:00
11:15 AM,41.0,21.2,45,30.28,10.0,NW,18.4,26.5,N/A,,Clear,310,2013-03-05 17:15:00
11:35 AM,41.0,21.2,45,30.28,10.0,WNW,18.4,23.0,N/A,,Clear,290,2013-03-05 17:35:00
11:55 AM,41.0,21.2,45,30.28,10.0,WNW,17.3,27.6,N/A,,Clear,300,2013-03-05 17:55:00
12:15 PM,41.0,21.2,45,30.27,10.0,WNW,16.1,21.9,N/A,,Clear,300,2013-03-05 18:15:00
12:35 PM,42.8,23.0,46,30.27,10.0,NW,12.7,16.1,N/A,,Clear,310,2013-03-05 18:35:00
12:55 PM,42.8,23.0,46,30.26,10.0,WNW,13.8,21.9,N/A,,Clear,300,2013-03-05 18:55:00
1:15 PM,44.6,23.0,43,30.26,10.0,West,13.8,23.0,N/A,,Clear,280,2013-03-05 19:15:00
1:35 PM,44.6,23.0,43,30.26,10.0,WNW,18.4,25.3,N/A,,Clear,290,2013-03-05 19:35:00
1:55 PM,44.6,23.0,43,30.26,10.0,WNW,19.6,26.5,N/A,,Clear,290,2013-03-05 19:55:00
2:15 PM,46.4,23.0,40,30.25,10.0,NW,19.6,25.3,N/A,,Clear,310,2013-03-05 20:15:00
2:35 PM,46.4,23.0,40,30.25,10.0,WNW,17.3,27.6,N/A,,Clear,300,2013-03-05 20:35:00
2:55 PM,46.4,23.0,40,30.25,10.0,WNW,15.0,20.7,N/A,,Clear,290,2013-03-05 20:55:00
3:15 PM,46.4,23.0,40,30.25,10.0,WNW,18.4,25.3,N/A,,Clear,290,2013-03-05 21:15:00
3:35 PM,46.4,23.0,40,30.25,10.0,NW,20.7,-,N/A,,Clear,320,2013-03-05 21:35:00
3:55 PM,46.4,23.0,40,30.25,10.0,NW,16.1,27.6,N/A,,Clear,310,2013-03-05 21:55:00
4:15 PM,46.4,23.0,40,30.25,10.0,NW,18.4,26.5,N/A,,Clear,310,2013-03-05 22:15:00
4:35 PM,46.4,23.0,40,30.25,10.0,WNW,15.0,23.0,N/A,,Clear,300,2013-03-05 22:35:00
4:55 PM,46.4,23.0,40,30.26,10.0,WNW,17.3,24.2,N/A,,Clear,300,2013-03-05 22:55:00
5:15 PM,44.6,23.0,43,30.26,10.0,WNW,13.8,23.0,N/A,,Clear,300,2013-03-05 23:15:00
5:35 PM,44.6,23.0,43,30.26,10.0,NW,13.8,18.4,N/A,,Clear,310,2013-03-05 23:35:00
5:55 PM,44.6,23.0,43,30.27,10.0,NW,13.8,19.6,N/A,,Clear,320,2013-03-05 23:55:00
6:15 PM,42.8,23.0,46,30.27,10.0,NW,9.2,20.7,N/A,,Clear,320,2013-03-06 00:15:00
6:35 PM,42.8,23.0,46,30.28,10.0,NW,11.5,-,N/A,,Clear,310,2013-03-06 00:35:00
6:55 PM,41.0,24.8,53,30.28,10.0,NW,8.1,-,N/A,,Clear,310,2013-03-06 00:55:00
7:15 PM,41.0,24.8,53,30.28,10.0,NW,8.1,-,N/A,,Clear,310,2013-03-06 01:15:00
7:35 PM,39.2,26.6,61,30.29,10.0,NW,8.1,-,N/A,,Clear,320,2013-03-06 01:35:00
7:55 PM,37.4,26.6,65,30.31,10.0,NNW,6.9,-,N/A,,Clear,330,2013-03-06 01:55:00
8:15 PM,39.2,26.6,61,30.32,10.0,NNW,8.1,-,N/A,,Clear,330,2013-03-06 02:15:00
8:35 PM,37.4,26.6,65,30.32,10.0,NNW,9.2,-,N/A,,Clear,330,2013-03-06 02:35:00
8:55 PM,37.4,26.6,65,30.33,10.0,North,13.8,19.6,N/A,,Clear,350,2013-03-06 02:55:00
9:15 PM,35.6,24.8,65,30.34,10.0,NNW,10.4,20.7,N/A,,Clear,340,2013-03-06 03:15:00
9:35 PM,35.6,24.8,65,30.35,10.0,North,11.5,16.1,N/A,,Clear,350,2013-03-06 03:35:00
9:55 PM,35.6,24.8,65,30.35,10.0,NNW,9.2,-,N/A,,Clear,340,2013-03-06 03:55:00
10:15 PM,35.6,24.8,65,30.36,10.0,NNW,8.1,-,N/A,,Clear,340,2013-03-06 04:15:00
10:35 PM,33.8,24.8,70,30.36,10.0,NNW,9.2,-,N/A,,Clear,330,2013-03-06 04:35:00
10:55 PM,33.8,23.0,65,30.36,10.0,NNW,10.4,-,N/A,,Clear,340,2013-03-06 04:55:00
11:15 PM,33.8,23.0,65,30.36,10.0,NNW,10.4,16.1,N/A,,Clear,340,2013-03-06 05:15:00
11:35 PM,33.8,23.0,65,30.36,10.0,North,8.1,-,N/A,,Clear,350,2013-03-06 05:35:00
11:55 PM,33.8,23.0,65,30.36,10.0,NNW,9.2,-,N/A,,Clear,340,2013-03-06 05:55:00